Time;durP1;ratioP1;P1;durP2;ratioP2;P2;SDS_P1;SDS_P2;PMS_P1;PMS_P2;Temp;Humidity;BMP_temperature;BMP_pressure;BME280_temperature;BME280_humidity;BME280_pressure;Samples;Min_cycle;Max_cycle;Signal;HPM_P1;HPM_P2
2022/05/25 00:00:37;;;;;;;4.80;1.30;;;13.10;99.90;;;;;;5012923;28;20030;-77
2022/05/25 00:03:04;;;;;;;1.40;1.23;;;13.10;99.90;;;;;;4999251;28;20036;-76
2022/05/25 00:05:33;;;;;;;2.95;1.48;;;13.00;99.90;;;;;;5000368;28;20132;-75
2022/05/25 00:08:00;;;;;;;2.08;1.27;;;13.30;99.90;;;;;;5034534;22;20497;-74
2022/05/25 00:10:26;;;;;;;3.40;1.33;;;13.20;99.90;;;;;;5010560;28;20084;-73
2022/05/25 00:12:52;;;;;;;4.88;1.67;;;12.90;99.90;;;;;;5011275;28;20471;-73
2022/05/25 00:15:17;;;;;;;2.28;1.52;;;12.90;99.90;;;;;;5023306;28;20471;-73
2022/05/25 00:17:43;;;;;;;3.70;1.60;;;12.90;99.90;;;;;;5025604;28;20018;-73
2022/05/25 00:20:10;;;;;;;2.45;1.50;;;12.90;99.90;;;;;;5015324;28;20037;-74
2022/05/25 00:22:43;;;;;;;4.15;1.48;;;12.80;99.90;;;;;;5025069;28;20071;-74
2022/05/25 00:25:12;;;;;;;3.25;1.52;;;12.60;99.90;;;;;;5019409;28;20113;-75
2022/05/25 00:27:37;;;;;;;2.05;1.40;;;12.50;99.90;;;;;;5020501;28;20029;-73
2022/05/25 00:30:04;;;;;;;4.07;1.63;;;12.40;99.90;;;;;;5034177;28;20101;-72
2022/05/25 00:32:30;;;;;;;2.92;1.33;;;12.40;99.90;;;;;;5019897;28;20032;-72
2022/05/25 00:34:56;;;;;;;1.95;1.52;;;12.70;99.90;;;;;;5032525;28;20029;-73
2022/05/25 00:37:21;;;;;;;3.10;1.70;;;12.70;99.90;;;;;;5022006;28;20026;-73
2022/05/25 00:39:47;;;;;;;2.10;1.40;;;12.70;99.90;;;;;;5021091;28;20022;-74
2022/05/25 00:42:12;;;;;;;1.95;1.33;;;12.70;99.90;;;;;;5027095;28;20596;-73
2022/05/25 00:44:38;;;;;;;3.15;1.27;;;12.70;99.90;;;;;;5027839;28;20041;-74
2022/05/25 00:47:05;;;;;;;3.95;1.40;;;12.80;99.90;;;;;;5021569;28;20029;-73
2022/05/25 00:49:33;;;;;;;3.63;1.50;;;12.90;99.90;;;;;;5020927;28;20034;-73
2022/05/25 00:52:05;;;;;;;3.13;1.50;;;12.90;99.90;;;;;;5026226;28;20498;-74
2022/05/25 00:54:36;;;;;;;1.90;1.50;;;12.90;99.90;;;;;;5027544;28;20030;-75
2022/05/25 00:57:13;;;;;;;1.73;1.20;;;12.90;99.90;;;;;;5023535;28;20068;-74
2022/05/25 00:59:55;;;;;;;4.05;1.42;;;12.90;99.90;;;;;;5020911;28;20018;-73
2022/05/25 01:02:21;;;;;;;2.60;1.25;;;13.00;99.90;;;;;;5021227;28;20030;-74
2022/05/25 01:04:47;;;;;;;3.35;1.70;;;12.80;99.90;;;;;;5027601;28;20026;-74
2022/05/25 01:07:18;;;;;;;2.05;1.35;;;12.80;99.90;;;;;;5026310;28;20410;-74
2022/05/25 01:10:05;;;;;;;1.83;1.35;;;12.70;99.90;;;;;;5001097;28;20813;-74
2022/05/25 01:12:53;;;;;;;1.70;1.52;;;12.60;99.90;;;;;;5026987;28;20077;-74
2022/05/25 01:15:33;;;;;;;1.98;1.33;;;11.90;99.90;;;;;;5014108;28;20022;-74
2022/05/25 01:18:33;;;;;;;3.05;1.60;;;12.00;99.90;;;;;;5001818;28;20028;-75
2022/05/25 01:21:24;;;;;;;1.70;1.60;;;12.10;99.90;;;;;;5026913;28;20024;-74
2022/05/25 01:23:55;;;;;;;4.00;1.85;;;12.10;99.90;;;;;;5029444;28;20017;-74
2022/05/25 01:26:47;;;;;;;1.75;1.50;;;12.20;99.90;;;;;;5023424;28;20026;-75
2022/05/25 01:29:29;;;;;;;4.18;1.70;;;12.30;99.90;;;;;;5027331;28;20037;-74
2022/05/25 01:32:01;;;;;;;2.50;1.65;;;12.40;99.90;;;;;;5025250;28;20479;-74
2022/05/25 01:34:43;;;;;;;2.05;1.75;;;12.30;99.90;;;;;;5021565;28;20247;-74
2022/05/25 01:37:23;;;;;;;3.20;1.80;;;12.20;99.90;;;;;;5019254;28;20028;-77
2022/05/25 01:40:16;;;;;;;3.60;1.90;;;12.20;99.90;;;;;;5020177;28;20143;-77
2022/05/25 01:42:50;;;;;;;4.55;1.90;;;12.30;99.90;;;;;;5006360;28;20064;-76
2022/05/25 01:45:17;;;;;;;3.78;1.80;;;12.40;99.90;;;;;;5024653;28;20101;-75
2022/05/25 01:47:47;;;;;;;4.10;1.83;;;12.50;99.90;;;;;;5012055;28;20036;-74
2022/05/25 01:50:17;;;;;;;2.67;1.58;;;12.60;99.90;;;;;;5024869;28;20029;-74
2022/05/25 01:52:46;;;;;;;2.28;1.75;;;12.60;99.90;;;;;;5014137;28;20045;-74
2022/05/25 01:55:21;;;;;;;2.80;1.70;;;12.80;99.90;;;;;;5015207;28;20168;-72
2022/05/25 01:57:53;;;;;;;3.72;1.80;;;12.70;99.90;;;;;;5017294;28;20548;-72
2022/05/25 02:00:37;;;;;;;2.20;1.77;;;12.60;99.90;;;;;;5025783;28;20048;-72
2022/05/25 02:06:11;;;;;;;3.58;2.33;;;12.40;99.90;;;;;;5026568;28;20395;-76
2022/05/25 02:09:24;;;;;;;3.80;2.10;;;12.30;99.90;;;;;;5013148;28;20399;-73
2022/05/25 02:12:15;;;;;;;3.83;1.70;;;12.20;99.90;;;;;;5011908;28;20033;-76
2022/05/25 02:14:44;;;;;;;2.00;1.80;;;12.40;99.90;;;;;;5019601;28;20021;-75
2022/05/25 02:17:23;;;;;;;3.95;1.50;;;12.50;99.90;;;;;;5017882;28;20026;-73
2022/05/25 02:19:55;;;;;;;4.10;1.70;;;12.80;99.90;;;;;;5022083;28;20026;-73
2022/05/25 02:22:29;;;;;;;3.28;1.60;;;12.90;99.90;;;;;;5017699;28;20030;-76
2022/05/25 02:25:02;;;;;;;2.45;1.60;;;12.90;99.90;;;;;;5021747;28;20069;-76
2022/05/25 02:27:41;;;;;;;1.90;1.40;;;13.00;99.90;;;;;;5024602;28;20029;-74
2022/05/25 02:30:11;;;;;;;3.40;1.70;;;13.00;99.90;;;;;;5012739;28;20029;-74
2022/05/25 02:33:07;;;;;;;3.78;1.70;;;13.00;99.90;;;;;;5012319;28;20054;-72
2022/05/25 02:35:35;;;;;;;4.50;1.98;;;12.50;99.90;;;;;;5024407;28;20025;-75
2022/05/25 02:38:04;;;;;;;4.53;2.00;;;12.30;99.90;;;;;;5024577;28;20475;-74
2022/05/25 02:40:32;;;;;;;3.75;2.08;;;12.30;99.90;;;;;;5018364;28;20029;-74
2022/05/25 02:42:57;;;;;;;7.25;2.13;;;12.10;99.90;;;;;;5018348;28;20149;-74
2022/05/25 02:45:23;;;;;;;4.70;2.20;;;11.90;99.90;;;;;;5012606;28;20069;-74
2022/05/25 02:47:49;;;;;;;2.55;2.00;;;11.90;99.90;;;;;;5024785;28;20033;-74
2022/05/25 02:50:15;;;;;;;3.38;1.65;;;12.10;99.90;;;;;;5013985;28;20033;-74
2022/05/25 02:52:40;;;;;;;4.13;1.90;;;12.30;99.90;;;;;;5024400;28;20025;-76
2022/05/25 02:55:06;;;;;;;4.50;1.98;;;12.30;99.90;;;;;;5018968;28;20406;-73
2022/05/25 02:57:32;;;;;;;5.18;1.98;;;12.20;99.90;;;;;;5019680;28;20021;-73
2022/05/25 02:59:57;;;;;;;2.55;1.85;;;12.20;99.90;;;;;;5024165;28;20530;-73
2022/05/25 03:02:23;;;;;;;5.03;2.13;;;12.20;99.90;;;;;;5023814;28;20515;-73
2022/05/25 03:04:49;;;;;;;5.53;2.05;;;12.20;99.90;;;;;;5018557;28;20034;-75
2022/05/25 03:07:15;;;;;;;2.58;1.83;;;12.20;99.90;;;;;;5019519;28;20034;-73
2022/05/25 03:09:40;;;;;;;5.35;2.10;;;12.20;99.90;;;;;;5025278;28;20399;-73
2022/05/25 03:12:08;;;;;;;5.28;1.90;;;12.30;99.90;;;;;;5023796;28;20087;-76
2022/05/25 03:14:34;;;;;;;2.80;1.60;;;12.40;99.90;;;;;;5018331;28;20032;-73
2022/05/25 03:17:12;;;;;;;1.90;1.70;;;12.50;99.90;;;;;;5019278;28;20030;-73
2022/05/25 03:19:39;;;;;;;2.13;1.73;;;12.40;99.90;;;;;;5007796;28;20021;-74
2022/05/25 03:22:04;;;;;;;2.75;1.85;;;12.40;99.90;;;;;;5030045;28;20040;-75
2022/05/25 03:24:30;;;;;;;2.20;2.00;;;12.50;99.90;;;;;;5011975;28;20034;-73
2022/05/25 03:27:35;;;;;;;3.20;2.08;;;12.70;99.90;;;;;;5082979;22;20050;-72
2022/05/25 03:30:20;;;;;;;2.90;2.00;;;12.80;99.90;;;;;;4992412;28;20136;-75
2022/05/25 03:32:55;;;;;;;4.85;2.00;;;12.70;99.90;;;;;;4985256;28;20425;-75
2022/05/25 03:35:20;;;;;;;4.32;1.52;;;12.50;99.90;;;;;;4978408;28;20096;-73
2022/05/25 03:37:46;;;;;;;3.08;1.80;;;12.60;99.90;;;;;;5001568;28;20465;-73
2022/05/25 03:40:14;;;;;;;7.20;2.10;;;12.60;99.90;;;;;;5005085;28;20071;-73
2022/05/25 03:42:41;;;;;;;5.43;2.17;;;12.80;99.90;;;;;;5002656;28;20519;-72
2022/05/25 03:45:07;;;;;;;2.70;1.98;;;12.60;99.90;;;;;;4998708;28;20030;-73
2022/05/25 03:47:33;;;;;;;5.28;1.88;;;12.40;99.90;;;;;;5000508;28;20041;-73
2022/05/25 03:49:58;;;;;;;3.95;2.10;;;12.50;99.90;;;;;;4991943;28;20034;-73
2022/05/25 03:52:25;;;;;;;2.65;2.00;;;12.50;99.90;;;;;;5001306;28;20030;-73
2022/05/25 03:54:52;;;;;;;2.88;1.92;;;12.60;99.90;;;;;;4997365;28;20121;-73
2022/05/25 03:57:17;;;;;;;2.45;2.25;;;12.60;99.90;;;;;;5000321;28;20018;-73
2022/05/25 03:59:45;;;;;;;2.78;2.10;;;12.50;99.90;;;;;;5006260;28;20030;-75
2022/05/25 04:02:11;;;;;;;2.30;1.70;;;12.40;99.90;;;;;;5006902;28;20034;-75
2022/05/25 04:04:36;;;;;;;3.80;2.17;;;12.20;99.90;;;;;;4997319;28;20035;-73
2022/05/25 04:07:02;;;;;;;3.30;1.80;;;12.30;99.90;;;;;;5007494;28;20076;-73
2022/05/25 04:09:28;;;;;;;4.28;2.00;;;12.50;99.90;;;;;;5009178;28;20026;-73
2022/05/25 04:11:53;;;;;;;2.83;2.05;;;12.50;99.90;;;;;;5005874;28;20069;-74
2022/05/25 04:14:19;;;;;;;2.30;2.10;;;12.50;99.90;;;;;;5002310;28;20030;-76
2022/05/25 04:16:45;;;;;;;5.85;2.08;;;12.50;99.90;;;;;;5002151;28;20026;-75
2022/05/25 04:19:12;;;;;;;2.92;2.03;;;12.20;99.90;;;;;;5000862;28;20164;-73
2022/05/25 04:21:37;;;;;;;2.67;2.10;;;12.10;99.90;;;;;;5004535;28;20026;-73
2022/05/25 04:24:03;;;;;;;3.65;2.00;;;12.20;99.90;;;;;;5012859;28;20361;-73
2022/05/25 04:26:30;;;;;;;4.07;2.05;;;12.10;99.90;;;;;;5004389;28;20030;-72
2022/05/25 04:28:57;;;;;;;3.17;1.95;;;11.90;99.90;;;;;;4999648;28;20029;-73
2022/05/25 04:31:23;;;;;;;4.45;2.00;;;11.80;99.90;;;;;;5003726;28;20376;-75
2022/05/25 04:33:48;;;;;;;3.95;2.13;;;12.00;99.90;;;;;;5006956;28;20121;-76
2022/05/25 04:36:14;;;;;;;5.75;2.53;;;12.00;99.90;;;;;;5005920;28;20026;-75
2022/05/25 04:38:40;;;;;;;6.13;2.00;;;11.90;99.90;;;;;;4996090;28;20456;-74
2022/05/25 04:41:06;;;;;;;4.22;2.13;;;12.00;99.90;;;;;;4994420;28;20058;-75
2022/05/25 04:43:31;;;;;;;2.67;1.98;;;12.10;99.90;;;;;;4997972;28;20554;-76
2022/05/25 04:45:59;;;;;;;4.90;2.08;;;12.30;99.90;;;;;;5004275;28;20384;-73
2022/05/25 04:48:25;;;;;;;3.72;2.00;;;12.50;99.90;;;;;;5008217;28;20026;-75
2022/05/25 04:50:53;;;;;;;5.63;2.70;;;12.50;99.90;;;;;;4994369;28;20034;-76
2022/05/25 04:53:20;;;;;;;4.50;2.28;;;12.50;99.90;;;;;;5012244;28;20053;-75
2022/05/25 04:58:33;;;;;;;5.72;2.40;;;12.20;99.90;;;;;;4990094;28;20629;-76
2022/05/25 05:00:59;;;;;;;3.08;2.25;;;12.40;99.90;;;;;;4999334;28;20484;-76
2022/05/25 05:03:27;;;;;;;4.75;2.50;;;12.50;99.90;;;;;;5006795;28;20030;-76
2022/05/25 05:05:54;;;;;;;4.30;2.40;;;12.50;99.90;;;;;;5007535;28;20018;-76
2022/05/25 05:08:20;;;;;;;4.43;2.17;;;12.50;99.90;;;;;;5000937;28;20483;-71
2022/05/25 05:10:46;;;;;;;3.67;2.25;;;12.60;99.90;;;;;;4999120;28;20081;-74
2022/05/25 05:13:12;;;;;;;5.20;2.20;;;12.60;99.90;;;;;;5006969;28;20072;-72
2022/05/25 05:15:41;;;;;;;3.22;2.10;;;12.80;99.90;;;;;;5006443;28;20105;-75
2022/05/25 05:18:07;;;;;;;4.35;2.22;;;13.00;99.90;;;;;;4994418;28;20018;-75
2022/05/25 05:20:33;;;;;;;5.00;2.10;;;13.10;99.90;;;;;;5007056;28;20025;-75
2022/05/25 05:22:59;;;;;;;3.65;2.20;;;13.20;99.90;;;;;;5002714;28;20037;-75
2022/05/25 05:25:25;;;;;;;4.57;2.30;;;13.10;99.90;;;;;;4999476;28;20081;-75
2022/05/25 05:27:52;;;;;;;5.40;2.72;;;12.90;99.90;;;;;;5005650;28;20089;-76
2022/05/25 05:30:20;;;;;;;3.67;2.20;;;12.60;99.90;;;;;;5006910;28;20030;-76
2022/05/25 05:32:46;;;;;;;5.38;2.30;;;12.60;99.90;;;;;;5002547;28;20447;-75
2022/05/25 05:35:12;;;;;;;3.10;2.00;;;12.60;99.90;;;;;;4998891;28;20050;-76
2022/05/25 05:37:51;;;;;;;4.60;2.08;;;12.80;99.90;;;;;;4994000;28;20034;-75
2022/05/25 05:40:18;;;;;;;4.35;2.13;;;13.00;99.90;;;;;;4997498;28;20042;-77
2022/05/25 05:42:46;;;;;;;7.68;2.42;;;13.10;99.90;;;;;;5012432;28;20030;-75
2022/05/25 05:45:18;;;;;;;2.67;2.47;;;13.00;99.90;;;;;;4996913;28;20034;-77
2022/05/25 05:47:52;;;;;;;2.50;2.28;;;12.80;99.90;;;;;;5005298;28;20391;-74
2022/05/25 05:50:20;;;;;;;5.25;2.60;;;12.70;99.90;;;;;;5005937;28;20118;-75
2022/05/25 05:52:45;;;;;;;2.88;2.40;;;12.70;99.90;;;;;;5006429;28;20026;-76
2022/05/25 05:55:11;;;;;;;4.50;2.60;;;12.60;99.90;;;;;;4998924;28;20529;-75
2022/05/25 05:57:38;;;;;;;3.05;2.58;;;12.60;99.90;;;;;;5000679;28;20030;-74
2022/05/25 06:00:06;;;;;;;2.65;2.45;;;12.60;99.90;;;;;;4999953;28;20056;-76
2022/05/25 06:02:32;;;;;;;3.83;2.50;;;12.70;99.90;;;;;;4998644;28;20033;-75
2022/05/25 06:04:57;;;;;;;3.92;2.42;;;12.70;99.90;;;;;;4999641;28;20034;-75
2022/05/25 06:07:23;;;;;;;3.70;2.40;;;12.70;99.90;;;;;;5047281;23;20045;-77
2022/05/25 06:09:48;;;;;;;2.92;2.63;;;12.70;99.90;;;;;;5058907;28;20027;-76
2022/05/25 06:12:14;;;;;;;3.28;2.65;;;12.80;99.90;;;;;;5072292;28;20071;-78
2022/05/25 06:14:40;;;;;;;6.72;2.95;;;12.90;99.90;;;;;;5050703;28;20044;-77
2022/05/25 06:19:50;;;;;;;5.00;2.80;;;13.20;99.90;;;;;;5082446;28;20049;-76
2022/05/25 06:22:18;;;;;;;2.95;2.67;;;13.10;99.90;;;;;;5073016;28;20111;-77
2022/05/25 06:24:47;;;;;;;2.92;2.70;;;13.20;99.90;;;;;;5082966;28;20028;-76
2022/05/25 06:27:13;;;;;;;3.83;2.80;;;13.20;99.90;;;;;;5086007;28;20029;-76
2022/05/25 06:29:44;;;;;;;4.15;3.13;;;13.30;99.90;;;;;;5072380;28;20044;-77
2022/05/25 06:32:11;;;;;;;3.63;2.80;;;13.40;99.90;;;;;;5075512;28;20038;-77
2022/05/25 06:34:38;;;;;;;4.45;3.05;;;13.70;99.90;;;;;;5073997;28;20029;-77
2022/05/25 06:37:05;;;;;;;4.60;3.35;;;13.90;99.90;;;;;;5074182;28;20089;-76
2022/05/25 06:39:35;;;;;;;4.25;3.30;;;13.90;99.90;;;;;;5081548;28;20035;-76
2022/05/25 06:42:01;;;;;;;5.90;3.15;;;13.90;99.90;;;;;;5063088;28;20439;-76
2022/05/25 06:44:27;;;;;;;3.42;2.97;;;14.20;99.90;;;;;;5080551;28;20054;-76
2022/05/25 06:46:53;;;;;;;4.85;2.92;;;14.10;99.90;;;;;;5067910;28;20124;-76
2022/05/25 06:49:19;;;;;;;4.50;2.97;;;14.20;99.90;;;;;;5084003;28;20457;-77
2022/05/25 06:51:45;;;;;;;5.03;3.10;;;14.40;99.90;;;;;;5073535;28;20093;-77
2022/05/25 06:54:14;;;;;;;5.30;3.10;;;14.50;99.90;;;;;;5071137;28;20659;-77
2022/05/25 06:56:39;;;;;;;3.47;2.50;;;14.60;99.90;;;;;;5061082;28;20048;-76
2022/05/25 06:59:05;;;;;;;4.88;2.50;;;14.60;99.90;;;;;;5074036;28;20063;-76
2022/05/25 07:01:31;;;;;;;4.80;2.28;;;14.90;99.90;;;;;;5070260;28;20031;-76
2022/05/25 07:03:57;;;;;;;9.13;3.22;;;15.00;99.90;;;;;;5084801;28;20035;-76
2022/05/25 07:06:24;;;;;;;5.10;2.92;;;15.00;99.90;;;;;;5078094;28;20401;-77
2022/05/25 07:08:50;;;;;;;4.38;2.30;;;14.90;99.90;;;;;;5079496;28;20028;-77
2022/05/25 07:11:15;;;;;;;3.40;1.98;;;14.80;99.90;;;;;;5084705;28;20466;-76
2022/05/25 07:13:41;;;;;;;2.60;1.77;;;14.70;99.90;;;;;;5073852;28;20024;-76
2022/05/25 07:16:09;;;;;;;2.17;1.70;;;14.50;99.90;;;;;;5072646;28;20501;-76
2022/05/25 07:18:35;;;;;;;2.78;1.70;;;14.50;99.90;;;;;;5071731;28;20027;-72
2022/05/25 07:21:11;;;;;;;4.22;1.70;;;14.30;99.90;;;;;;5071282;28;20037;-76
2022/05/25 07:23:38;;;;;;;1.75;1.48;;;14.30;99.90;;;;;;5066362;28;20036;-76
2022/05/25 07:26:06;;;;;;;3.42;1.65;;;14.30;99.90;;;;;;5087902;28;20111;-76
2022/05/25 07:28:33;;;;;;;4.82;1.75;;;14.50;99.90;;;;;;5075496;28;20035;-72
2022/05/25 07:31:13;;;;;;;2.58;1.83;;;14.70;99.90;;;;;;5074937;28;20032;-71
2022/05/25 07:33:40;;;;;;;2.80;1.95;;;14.70;99.90;;;;;;5072088;28;20170;-76
2022/05/25 07:36:10;;;;;;;3.67;2.38;;;14.60;99.90;;;;;;5075507;28;20024;-76
2022/05/25 07:38:38;;;;;;;7.05;2.30;;;15.10;99.90;;;;;;5060077;28;20021;-76
2022/05/25 07:41:03;;;;;;;5.25;2.03;;;15.20;99.90;;;;;;5074995;28;20048;-77
2022/05/25 07:43:32;;;;;;;3.38;1.92;;;15.00;99.90;;;;;;5060927;28;20029;-76
2022/05/25 07:45:58;;;;;;;4.25;2.10;;;15.00;99.90;;;;;;5075551;28;20039;-76
2022/05/25 07:48:24;;;;;;;4.38;2.25;;;15.30;99.90;;;;;;5077526;28;20024;-76
2022/05/25 07:50:49;;;;;;;3.13;1.88;;;15.60;99.90;;;;;;5084514;28;20570;-77
2022/05/25 07:56:03;;;;;;;3.08;2.50;;;15.70;99.90;;;;;;5089328;28;20023;-76
2022/05/25 07:58:30;;;;;;;5.57;2.10;;;15.80;99.90;;;;;;5082872;28;20055;-76
2022/05/25 08:00:57;;;;;;;2.15;1.30;;;15.80;99.90;;;;;;5081531;28;20059;-77
2022/05/25 08:06:09;;;;;;;3.22;1.30;;;15.80;99.90;;;;;;5089171;28;20493;-77
2022/05/25 08:08:36;;;;;;;2.22;1.30;;;15.90;99.90;;;;;;5085715;28;20115;-77
2022/05/25 08:11:10;;;;;;;3.53;1.30;;;16.00;99.90;;;;;;5076526;28;20085;-76
2022/05/25 08:13:40;;;;;;;3.42;1.55;;;16.20;99.90;;;;;;5083924;28;20031;-75
2022/05/25 08:16:06;;;;;;;1.95;1.17;;;16.10;99.90;;;;;;5088535;28;20024;-77
2022/05/25 08:18:31;;;;;;;3.70;1.35;;;16.20;99.90;;;;;;5065489;28;20074;-76
2022/05/25 08:20:57;;;;;;;3.08;1.40;;;16.10;99.90;;;;;;5076287;28;20104;-76
2022/05/25 08:23:23;;;;;;;4.00;1.40;;;16.60;99.90;;;;;;5086893;28;20031;-77
2022/05/25 08:25:48;;;;;;;1.77;1.35;;;16.60;99.90;;;;;;5081331;28;20103;-77
2022/05/25 08:28:14;;;;;;;4.35;1.20;;;16.90;99.90;;;;;;5064928;28;20024;-76
2022/05/25 08:30:41;;;;;;;4.05;1.42;;;16.80;99.90;;;;;;5071115;28;20078;-77
2022/05/25 08:33:07;;;;;;;2.70;1.40;;;17.10;99.90;;;;;;5086685;28;20159;-77
2022/05/25 08:35:33;;;;;;;4.82;1.40;;;17.00;99.90;;;;;;5076734;28;20478;-76
2022/05/25 08:37:58;;;;;;;2.38;1.35;;;17.00;99.90;;;;;;5082707;28;20601;-76
2022/05/25 08:40:27;;;;;;;4.13;1.20;;;17.00;99.90;;;;;;5072824;28;20111;-76
2022/05/25 08:43:27;;;;;;;2.60;1.20;;;16.90;99.90;;;;;;5074459;28;20040;-76
2022/05/25 08:46:00;;;;;;;1.83;1.20;;;17.00;99.90;;;;;;5022418;28;20544;-76
2022/05/25 08:48:27;;;;;;;4.30;1.25;;;16.90;99.90;;;;;;5062450;28;20073;-76
2022/05/25 08:51:00;;;;;;;3.28;1.50;;;17.30;99.90;;;;;;5083027;28;20069;-75
2022/05/25 08:53:26;;;;;;;3.92;1.58;;;17.20;99.90;;;;;;5074268;28;20158;-76
2022/05/25 08:56:16;;;;;;;2.83;1.10;;;17.20;99.90;;;;;;5085971;28;20106;-76
2022/05/25 08:59:07;;;;;;;4.38;1.40;;;17.70;99.90;;;;;;5035078;28;20047;-76
2022/05/25 09:02:02;;;;;;;5.95;1.70;;;17.70;99.90;;;;;;5079939;28;20028;-77
2022/05/25 09:04:50;;;;;;;1.85;1.20;;;17.30;99.90;;;;;;5080814;28;20024;-77
2022/05/25 09:07:32;;;;;;;2.28;1.67;;;17.60;99.90;;;;;;5084317;28;20020;-77
2022/05/25 09:09:58;;;;;;;3.70;1.45;;;17.30;99.90;;;;;;5068686;28;20489;-77
2022/05/25 09:12:34;;;;;;;2.63;1.30;;;17.10;99.90;;;;;;5062415;28;20106;-77
2022/05/25 09:15:18;;;;;;;3.15;1.35;;;17.20;99.90;;;;;;5075927;28;20031;-77
2022/05/25 09:18:02;;;;;;;3.10;1.23;;;18.10;99.90;;;;;;5093857;28;20415;-77
2022/05/25 09:20:36;;;;;;;1.83;1.10;;;17.70;99.90;;;;;;5080219;28;20020;-77
2022/05/25 09:23:02;;;;;;;4.10;1.40;;;17.90;99.90;;;;;;5085411;28;20090;-77
2022/05/25 09:25:29;;;;;;;3.33;1.30;;;18.10;99.90;;;;;;5087603;28;20024;-76
2022/05/25 09:28:14;;;;;;;4.07;1.48;;;17.60;99.90;;;;;;5082502;28;20423;-77
2022/05/25 09:30:45;;;;;;;2.33;1.10;;;17.30;99.90;;;;;;5074360;28;20122;-77
2022/05/25 09:33:28;;;;;;;3.88;1.27;;;17.20;99.90;;;;;;5075713;28;20036;-77
2022/05/25 09:35:59;;;;;;;3.83;0.90;;;17.70;99.90;;;;;;5050987;28;20039;-79
2022/05/25 09:38:42;;;;;;;2.95;1.20;;;18.10;99.90;;;;;;5074284;28;20031;-76
2022/05/25 09:41:12;;;;;;;1.88;1.00;;;18.50;99.90;;;;;;5071800;28;20575;-79
2022/05/25 09:43:40;;;;;;;1.98;0.98;;;18.60;99.90;;;;;;5078322;28;20031;-76
2022/05/25 09:46:27;;;;;;;3.15;1.08;;;18.60;99.90;;;;;;5082749;28;20028;-78
2022/05/25 09:48:59;;;;;;;3.45;1.52;;;19.00;99.90;;;;;;5082360;28;20493;-76
2022/05/25 09:51:34;;;;;;;2.85;1.25;;;19.00;99.90;;;;;;5075116;28;20496;-77
2022/05/25 09:54:19;;;;;;;4.00;1.10;;;18.50;99.90;;;;;;5065946;28;20035;-77
2022/05/25 09:56:55;;;;;;;3.65;1.00;;;18.00;99.90;;;;;;5071456;28;20033;-76
2022/05/25 09:59:28;;;;;;;2.05;1.10;;;18.00;99.90;;;;;;5073675;28;20052;-77
2022/05/25 10:01:54;;;;;;;1.50;0.98;;;17.60;99.90;;;;;;5083874;28;20024;-77
2022/05/25 10:04:34;;;;;;;1.30;0.85;;;17.90;99.90;;;;;;5071768;28;20016;-77
2022/05/25 10:07:00;;;;;;;1.25;0.80;;;18.50;99.90;;;;;;5073291;28;20402;-76
2022/05/25 10:09:28;;;;;;;1.92;1.27;;;18.30;99.90;;;;;;5075009;28;20024;-76
2022/05/25 10:11:59;;;;;;;1.88;1.10;;;18.50;99.90;;;;;;5071179;28;20028;-77
2022/05/25 10:14:28;;;;;;;5.43;1.00;;;18.40;99.90;;;;;;5075231;28;20035;-77
2022/05/25 10:17:05;;;;;;;0.70;0.70;;;19.10;99.90;;;;;;5093195;28;20020;-77
2022/05/25 10:19:34;;;;;;;1.98;0.90;;;19.50;99.90;;;;;;5086239;28;20769;-76
2022/05/25 10:22:00;;;;;;;1.58;1.10;;;19.50;99.90;;;;;;5067265;28;20103;-76
2022/05/25 10:24:27;;;;;;;1.27;1.00;;;19.40;99.90;;;;;;5072343;28;20124;-77
2022/05/25 10:26:59;;;;;;;2.20;0.80;;;19.60;99.90;;;;;;5073331;28;20031;-77
2022/05/25 10:38:11;;;;;;;2.22;0.90;;;20.10;99.90;;;;;;5079273;28;20523;-77
2022/05/25 10:40:43;;;;;;;1.23;0.70;;;20.00;99.90;;;;;;5070561;28;20017;-77
2022/05/25 10:43:14;;;;;;;1.30;1.00;;;20.40;99.90;;;;;;5067416;28;20027;-77
2022/05/25 10:45:42;;;;;;;3.42;1.10;;;20.40;99.90;;;;;;5086334;28;20051;-76
2022/05/25 10:48:40;;;;;;;2.40;0.90;;;20.00;99.90;;;;;;5085986;28;20024;-77
2022/05/25 10:51:13;;;;;;;3.80;1.00;;;19.20;99.90;;;;;;5073685;28;20032;-77
2022/05/25 10:57:17;;;;;;;4.88;1.20;;;19.20;99.90;;;;;;5066072;28;20043;-76
2022/05/25 10:59:45;;;;;;;2.17;1.10;;;18.80;99.90;;;;;;5074016;28;20068;-77
2022/05/25 11:02:34;;;;;;;3.75;0.90;;;18.60;99.90;;;;;;5080041;28;20024;-76
2022/05/25 11:05:26;;;;;;;1.92;0.90;;;18.50;99.90;;;;;;5067491;28;20730;-76
2022/05/25 11:07:59;;;;;;;1.88;0.98;;;18.40;99.90;;;;;;5078265;28;20031;-76
2022/05/25 11:10:37;;;;;;;3.92;1.10;;;18.40;99.90;;;;;;5079307;28;20027;-78
2022/05/25 11:13:35;;;;;;;3.28;1.00;;;18.20;99.90;;;;;;5065791;28;20385;-77
2022/05/25 11:16:43;;;;;;;1.33;0.80;;;19.10;99.90;;;;;;5073948;28;20020;-76
2022/05/25 11:19:17;;;;;;;1.63;1.05;;;18.70;99.90;;;;;;4990140;28;20032;-78
2022/05/25 11:22:09;;;;;;;3.45;1.05;;;19.40;99.90;;;;;;5069448;28;20047;-77
2022/05/25 11:25:08;;;;;;;1.42;0.90;;;20.20;99.90;;;;;;5068498;28;20109;-77
2022/05/25 11:28:15;;;;;;;4.10;1.08;;;21.20;99.90;;;;;;5084949;28;20027;-77
2022/05/25 11:31:19;;;;;;;1.00;0.90;;;21.20;99.90;;;;;;5059106;28;20107;-76
2022/05/25 11:33:53;;;;;;;2.65;1.10;;;20.70;99.90;;;;;;5085742;28;20038;-78
2022/05/25 11:36:40;;;;;;;1.30;0.80;;;21.00;99.90;;;;;;5084169;28;20020;-76
2022/05/25 11:39:37;;;;;;;1.50;1.08;;;21.30;99.90;;;;;;5049729;28;20060;-78
2022/05/25 11:42:14;;;;;;;1.33;0.82;;;21.90;99.90;;;;;;5078769;28;20027;-78
2022/05/25 11:44:49;;;;;;;3.00;0.82;;;21.60;99.90;;;;;;5074325;28;20024;-78
2022/05/25 11:47:28;;;;;;;1.73;0.90;;;21.60;99.90;;;;;;5075122;28;20023;-77
2022/05/25 11:50:11;;;;;;;1.40;0.80;;;21.30;99.90;;;;;;5057541;28;20106;-77
2022/05/25 11:53:06;;;;;;;3.42;1.42;;;21.10;99.90;;;;;;5066668;28;20112;-77
2022/05/25 11:55:57;;;;;;;3.08;1.10;;;21.20;99.90;;;;;;5055126;28;20549;-77
2022/05/25 11:58:43;;;;;;;2.00;0.90;;;21.50;99.90;;;;;;5066135;28;20028;-77
2022/05/25 12:01:24;;;;;;;;;;;22.30;99.90;;;;;;5078575;28;20070;-77
2022/05/25 12:03:53;;;;;;;3.30;0.93;;;21.90;99.90;;;;;;5080164;28;19904;-78
2022/05/25 12:06:51;;;;;;;1.10;0.80;;;21.30;99.90;;;;;;5076982;28;20035;-77
2022/05/25 12:09:59;;;;;;;2.65;0.90;;;21.70;99.90;;;;;;5075820;28;20029;-77
2022/05/25 12:12:28;;;;;;;2.78;0.95;;;21.50;99.50;;;;;;5068366;28;20021;-78
2022/05/25 12:15:12;;;;;;;1.70;0.70;;;22.40;99.90;;;;;;5082868;28;20489;-77
2022/05/25 12:17:49;;;;;;;1.77;1.13;;;22.10;99.90;;;;;;5085452;28;20025;-77
2022/05/25 12:20:28;;;;;;;2.70;1.00;;;22.20;98.40;;;;;;5059817;28;20027;-78
2022/05/25 12:22:57;;;;;;;1.58;0.90;;;21.80;99.90;;;;;;5070533;28;20024;-77
2022/05/25 12:25:23;;;;;;;1.70;0.90;;;21.70;99.60;;;;;;5075288;28;20032;-77
2022/05/25 12:27:52;;;;;;;2.13;0.75;;;21.20;99.90;;;;;;5073439;28;20440;-76
2022/05/25 12:30:28;;;;;;;2.20;0.90;;;20.90;99.90;;;;;;5088029;28;20032;-76
2022/05/25 12:32:54;;;;;;;2.00;0.80;;;20.40;99.10;;;;;;5084818;28;20028;-76
2022/05/25 12:35:22;;;;;;;1.30;0.73;;;19.80;99.20;;;;;;5081283;28;20092;-77
2022/05/25 12:37:51;;;;;;;3.42;0.77;;;20.10;99.00;;;;;;5066252;28;20070;-77
2022/05/25 12:40:26;;;;;;;1.23;0.80;;;21.10;99.90;;;;;;5087658;28;20021;-77
2022/05/25 12:42:51;;;;;;;2.95;0.80;;;20.80;99.70;;;;;;5086799;28;20035;-77
2022/05/25 12:48:33;;;;;;;1.50;0.95;;;20.20;99.90;;;;;;5081174;28;20042;-77
2022/05/25 12:51:07;;;;;;;1.92;0.82;;;20.60;99.00;;;;;;5064030;28;20119;-76
2022/05/25 12:53:52;;;;;;;7.30;4.78;;;20.20;99.90;;;;;;5073819;28;20771;-78
2022/05/25 12:56:18;;;;;;;2.45;1.95;;;19.80;99.90;;;;;;5074189;28;20050;-76
2022/05/25 12:58:46;;;;;;;1.60;0.73;;;19.50;99.90;;;;;;5074295;28;20021;-77
2022/05/25 13:01:14;;;;;;;1.88;0.93;;;19.50;99.90;;;;;;5087135;28;20024;-77
2022/05/25 13:03:46;;;;;;;1.48;0.90;;;19.50;99.90;;;;;;5076222;28;20052;-77
2022/05/25 13:06:14;;;;;;;3.63;0.93;;;19.50;99.90;;;;;;5065587;28;20036;-76
2022/05/25 13:08:59;;;;;;;2.70;1.00;;;19.40;99.90;;;;;;5073942;28;20025;-76
2022/05/25 13:11:55;;;;;;;4.90;1.20;;;19.40;99.90;;;;;;5058313;28;20111;-77
2022/05/25 13:14:22;;;;;;;1.27;0.70;;;19.50;99.90;;;;;;5076005;28;20026;-76
2022/05/25 13:16:51;;;;;;;3.30;1.50;;;19.40;99.90;;;;;;5083732;28;20012;-78
2022/05/25 13:19:32;;;;;;;3.70;1.90;;;20.30;99.90;;;;;;5062020;28;20020;-76
2022/05/25 13:22:04;;;;;;;1.70;0.77;;;20.20;99.90;;;;;;5067687;28;20048;-77
2022/05/25 13:24:43;;;;;;;6.03;2.17;;;19.60;99.90;;;;;;5072577;28;20031;-77
2022/05/25 13:27:19;;;;;;;1.02;0.70;;;21.30;99.90;;;;;;5068896;28;20040;-77
2022/05/25 13:29:54;;;;;;;3.50;0.95;;;22.40;99.50;;;;;;5075857;28;20024;-77
2022/05/25 13:32:36;;;;;;;1.77;1.00;;;21.30;99.90;;;;;;5073949;28;20717;-77
2022/05/25 13:35:19;;;;;;;2.35;1.92;;;20.10;99.90;;;;;;5073490;28;20025;-77
2022/05/25 13:37:57;;;;;;;7.75;4.15;;;19.90;99.90;;;;;;5083504;28;20024;-77
2022/05/25 13:40:28;;;;;;;2.80;2.10;;;19.90;99.90;;;;;;5078838;28;20028;-79
2022/05/25 13:42:54;;;;;;;3.00;1.73;;;20.00;99.90;;;;;;5081778;28;20031;-77